Portada
METAR-TAF:

METAR-TAF

Aeropuertos :

Aeropuerto Internacional de Suleimaniya

Solimania, Iraq

latitud: 35-33-39N, longitud: 45-18-52E, altitud: 760 m

Observación

El informe se hizo hace 1 hora y 13 minutos, a las 15:00 UTC
Viento 10 kt del noreste
Temperatura 39°C
Humedad 13%
Presión
Visibilidad 10 km o más
Escasas nubes a una altura de 4500 ft

METAR: ORSU 061500Z 04010KT 9999 FEW045 39/06 Q999

Hora: 19:13 (16:13 UTC)

Pronóstico

El informe se hizo hace 5 horas y 13 minutos, a las 11:00 UTC
Pronóstico válido del 06 a las 12 UTC al 07 a las 12 UTC
Viento 14 kt del noreste
Visibilidad 10 km o más
Nubes dispersas a una altura de 4500 ft
Evolucionando progresivamente
del 07 a las 01 UTC al 07 a las 03 UTC
Viento 15 kt del noreste con ráfagas de 25 kt
Visibilidad 10 km o más
sin nubes por debajo de 1500 m y sin presencia de cumulonimbus.

TAF: ORSU 061100Z 0612/0712 04014KT 9999 SCT045 BECMG 0701/0703 05015G25KT CAVOK

Observaciones y pronósticos meteorológicos de más de 4000 aeropuertos (mensajes METAR y TAF).

Los puntos amarillos y rojos representan las estaciones disponibles.

Ponga el ratón en el punto deseado para ver el nombre de la estación.

Haga clic para ver las observaciones y los pronósticos meteorológicos.

Para cambiar el mapa : haga clic en los botones verdes con una cruz de color negro para hacer un zoom, en el botón verde con un guión para alejar o en las flechas verdes para mapas adyacentes.


METAR-TAF: